Time;durP1;ratioP1;P1;durP2;ratioP2;P2;SDS_P1;SDS_P2;PMS_P1;PMS_P2;Temp;Humidity;BMP_temperature;BMP_pressure;BME280_temperature;BME280_humidity;BME280_pressure;Samples;Min_cycle;Max_cycle;Signal;HPM_P1;HPM_P2
2021/10/31 00:01:28;;;;;;;4.82;3.55;;;;;;;-141.50;100.00;63355.56;4906351;29;20103;-79
2021/10/31 00:03:55;;;;;;;5.88;3.30;;;;;;;-141.50;100.00;63355.56;4894637;29;20057;-79
2021/10/31 00:06:22;;;;;;;6.97;3.10;;;;;;;-141.50;100.00;63355.56;4878250;29;20449;-80
2021/10/31 00:08:49;;;;;;;5.85;3.17;;;;;;;-141.50;100.00;63355.56;4894771;29;20076;-79
2021/10/31 00:11:17;;;;;;;6.35;3.55;;;;;;;-141.50;100.00;63355.56;4901729;29;20052;-79
2021/10/31 00:13:44;;;;;;;5.70;3.22;;;;;;;-141.50;100.00;63355.56;4886238;29;20506;-80
2021/10/31 00:16:11;;;;;;;5.00;3.40;;;;;;;-141.50;100.00;63355.56;4901254;29;20126;-79
2021/10/31 00:18:37;;;;;;;5.30;3.22;;;;;;;-141.50;100.00;63355.56;4900442;29;20049;-81
2021/10/31 00:21:04;;;;;;;5.93;3.50;;;;;;;-141.50;100.00;63355.56;4899216;29;20064;-81
2021/10/31 00:23:31;;;;;;;6.38;3.42;;;;;;;-141.50;100.00;63355.56;4899668;29;20157;-81
2021/10/31 00:25:58;;;;;;;6.40;3.60;;;;;;;-141.50;100.00;63355.56;4894881;29;20057;-80
2021/10/31 00:28:25;;;;;;;5.20;3.60;;;;;;;-141.50;100.00;63355.56;4894019;29;20041;-78
2021/10/31 00:30:52;;;;;;;5.05;3.40;;;;;;;-141.50;100.00;63355.56;4894493;29;20052;-80
2021/10/31 00:33:20;;;;;;;9.18;3.78;;;;;;;-141.50;100.00;63355.56;4893965;29;20490;-78
2021/10/31 00:35:47;;;;;;;7.30;4.20;;;;;;;-141.50;100.00;63355.56;4896921;29;20064;-80
2021/10/31 00:38:14;;;;;;;5.40;3.92;;;;;;;-141.50;100.00;63355.56;4894618;29;20060;-80
2021/10/31 00:40:41;;;;;;;6.03;3.95;;;;;;;-141.50;100.00;63355.56;4895538;29;20057;-80
2021/10/31 00:43:08;;;;;;;7.15;4.18;;;;;;;-141.50;100.00;63355.56;4895223;29;20079;-80
2021/10/31 00:45:39;;;;;;;5.63;3.72;;;;;;;-141.50;100.00;63355.56;4898925;29;20082;-81
2021/10/31 00:48:06;;;;;;;7.57;4.65;;;;;;;-141.50;100.00;63355.56;4900935;29;20068;-80
2021/10/31 00:50:33;;;;;;;5.85;4.13;;;;;;;-141.50;100.00;63355.56;4884668;29;20589;-79
2021/10/31 00:53:01;;;;;;;9.18;4.20;;;;;;;-141.50;100.00;63355.56;4893023;29;20064;-80
2021/10/31 00:55:28;;;;;;;7.40;4.38;;;;;;;-141.50;100.00;63355.56;4894842;29;20056;-80
2021/10/31 00:57:55;;;;;;;6.53;4.05;;;;;;;-141.50;100.00;63355.56;4893475;29;20049;-78
2021/10/31 01:00:22;;;;;;;6.78;4.10;;;;;;;-141.50;100.00;63355.56;4894651;29;20060;-80
2021/10/31 01:02:49;;;;;;;6.45;3.65;;;;;;;-141.50;100.00;63355.56;4894342;29;20062;-80
2021/10/31 01:05:21;;;;;;;7.30;3.70;;;;;;;-141.50;100.00;63355.56;4898707;29;20104;-80
2021/10/31 01:08:18;;;;;;;6.45;3.88;;;;;;;-141.50;100.00;63355.56;4933083;29;20051;-80
2021/10/31 01:11:10;;;;;;;6.30;4.03;;;;;;;-141.50;100.00;63355.56;4900958;29;20079;-81
2021/10/31 01:14:01;;;;;;;8.48;4.32;;;;;;;-141.50;100.00;63355.56;4923530;29;20059;-81
2021/10/31 01:16:38;;;;;;;6.18;3.85;;;;;;;-141.50;100.00;63355.56;4923110;29;20063;-80
2021/10/31 01:19:29;;;;;;;7.40;3.63;;;;;;;-141.50;100.00;63355.56;4923924;29;20052;-80
2021/10/31 01:22:33;;;;;;;7.95;4.20;;;;;;;-141.50;100.00;63355.56;4904069;29;20044;-81
2021/10/31 01:25:18;;;;;;;5.65;3.58;;;;;;;-141.50;100.00;63355.56;4900690;29;20099;-81
2021/10/31 01:28:05;;;;;;;9.25;4.18;;;;;;;-141.50;100.00;63355.56;4915096;29;20056;-81
2021/10/31 01:30:50;;;;;;;4.95;3.40;;;;;;;-141.50;100.00;63355.56;4899957;29;20056;-80
2021/10/31 01:33:29;;;;;;;6.03;3.57;;;;;;;-141.50;100.00;63355.56;4914757;29;20044;-79
2021/10/31 01:36:06;;;;;;;6.28;3.83;;;;;;;-141.50;100.00;63355.56;4914424;29;20063;-80
2021/10/31 01:38:49;;;;;;;8.80;3.95;;;;;;;-141.50;100.00;63355.56;4914785;29;20059;-81
2021/10/31 01:41:26;;;;;;;7.95;4.78;;;;;;;-141.50;100.00;63355.56;4916205;29;20056;-80
2021/10/31 01:44:22;;;;;;;6.55;3.90;;;;;;;-141.50;100.00;63355.56;4899087;29;20056;-80
2021/10/31 01:46:59;;;;;;;6.47;4.30;;;;;;;-141.50;100.00;63355.56;4875924;29;20115;-80
2021/10/31 01:49:51;;;;;;;6.72;4.10;;;;;;;-141.50;100.00;63355.56;4916026;29;20064;-80
2021/10/31 01:52:28;;;;;;;9.38;4.50;;;;;;;-141.50;100.00;63355.56;4897753;29;20052;-80
2021/10/31 01:55:00;;;;;;;7.25;4.45;;;;;;;-141.50;100.00;63355.56;4900502;29;20066;-79
2021/10/31 01:57:29;;;;;;;9.07;4.30;;;;;;;-141.50;100.00;63355.56;4898823;29;20063;-79
2021/10/31 02:00:12;;;;;;;7.93;4.60;;;;;;;-141.50;100.00;63355.56;4916592;29;20095;-79
2021/10/31 02:02:41;;;;;;;9.00;4.35;;;;;;;-141.50;100.00;63355.56;4919341;29;20059;-79
2021/10/31 02:05:11;;;;;;;6.70;4.22;;;;;;;-141.50;100.00;63355.56;4922466;29;20107;-80
2021/10/31 02:07:41;;;;;;;8.63;4.30;;;;;;;-141.50;100.00;63355.56;4912667;29;20047;-81
2021/10/31 02:10:09;;;;;;;7.10;4.20;;;;;;;-141.50;100.00;63355.56;4915467;29;20465;-81
2021/10/31 02:12:39;;;;;;;7.25;4.80;;;;;;;-141.50;100.00;63355.56;4914400;29;20142;-81
2021/10/31 02:15:07;;;;;;;8.18;4.57;;;;;;;-141.50;100.00;63355.56;4900241;29;20056;-80
2021/10/31 02:17:35;;;;;;;7.88;4.90;;;;;;;-141.50;100.00;63355.56;4902349;29;20402;-80
2021/10/31 02:20:02;;;;;;;7.75;4.57;;;;;;;-141.50;100.00;63355.56;4914620;29;20052;-79
2021/10/31 02:22:31;;;;;;;7.85;4.82;;;;;;;-141.50;100.00;63355.56;4896317;29;20056;-80
2021/10/31 02:25:00;;;;;;;7.45;4.70;;;;;;;-141.50;100.00;63355.56;4915028;29;20330;-80
2021/10/31 02:27:31;;;;;;;7.93;4.72;;;;;;;-141.50;100.00;63355.56;4913447;29;20059;-80
2021/10/31 02:29:59;;;;;;;7.07;4.63;;;;;;;-141.50;100.00;63355.56;4899797;29;20067;-79
2021/10/31 02:32:31;;;;;;;6.47;4.53;;;;;;;-141.50;100.00;63355.56;4913777;29;20127;-80
2021/10/31 02:34:58;;;;;;;7.78;4.78;;;;;;;-141.50;100.00;63355.56;4920169;29;20115;-80
2021/10/31 02:37:26;;;;;;;9.02;4.85;;;;;;;-141.50;100.00;63355.56;4904969;29;20044;-80
2021/10/31 02:39:55;;;;;;;10.05;5.35;;;;;;;-141.50;100.00;63355.56;4911494;29;20044;-80
2021/10/31 02:42:22;;;;;;;8.93;5.47;;;;;;;-141.50;100.00;63355.56;4903265;29;20056;-79
2021/10/31 02:44:49;;;;;;;13.10;5.65;;;;;;;-141.50;100.00;63355.56;4918366;29;20565;-80
2021/10/31 02:47:26;;;;;;;9.18;5.25;;;;;;;-141.50;100.00;63355.56;4913705;29;20062;-79
2021/10/31 02:49:55;;;;;;;8.02;5.15;;;;;;;-141.50;100.00;63355.56;4914720;29;20055;-79
2021/10/31 02:52:49;;;;;;;11.38;5.47;;;;;;;-141.50;100.00;63355.56;4912347;29;20056;-79
2021/10/31 02:55:23;;;;;;;10.25;5.85;;;;;;;-141.50;100.00;63355.56;4911502;29;20060;-79
2021/10/31 02:58:06;;;;;;;11.25;5.25;;;;;;;-141.50;100.00;63355.56;4898021;29;20059;-79
2021/10/31 03:00:37;;;;;;;7.78;5.63;;;;;;;-141.50;100.00;63355.56;4898718;29;20075;-78
2021/10/31 03:03:07;;;;;;;7.03;5.20;;;;;;;-141.50;100.00;63355.56;4900556;29;20052;-81
2021/10/31 03:05:35;;;;;;;8.43;5.32;;;;;;;-141.50;100.00;63355.56;4896564;29;20293;-78
2021/10/31 03:08:02;;;;;;;8.05;5.63;;;;;;;-141.50;100.00;63355.56;4895966;29;20050;-79
2021/10/31 03:10:29;;;;;;;10.40;6.03;;;;;;;-141.50;100.00;63355.56;4915049;29;20056;-80
2021/10/31 03:12:56;;;;;;;8.80;5.75;;;;;;;-141.50;100.00;63355.56;4896297;29;20320;-78
2021/10/31 03:15:23;;;;;;;9.38;5.32;;;;;;;-141.50;100.00;63355.56;4898158;29;20489;-80
2021/10/31 03:17:50;;;;;;;8.93;5.93;;;;;;;-141.50;100.00;63355.56;4897154;29;20055;-80
2021/10/31 03:20:17;;;;;;;11.02;6.28;;;;;;;-141.50;100.00;63355.56;4898080;29;20059;-81
2021/10/31 03:22:44;;;;;;;12.05;5.78;;;;;;;-141.50;100.00;63355.56;4896044;29;20052;-79
2021/10/31 03:25:10;;;;;;;11.50;5.60;;;;;;;-141.50;100.00;63355.56;4899007;29;20048;-80
2021/10/31 03:27:37;;;;;;;9.82;5.70;;;;;;;-141.50;100.00;63355.56;4896249;29;20115;-78
2021/10/31 03:30:04;;;;;;;9.13;5.50;;;;;;;-141.50;100.00;63355.56;4897276;29;20292;-79
2021/10/31 03:32:31;;;;;;;9.73;6.05;;;;;;;-141.50;100.00;63355.56;4913010;29;20150;-80
2021/10/31 03:34:58;;;;;;;9.52;6.40;;;;;;;-141.50;100.00;63355.56;4898193;29;20063;-79
2021/10/31 03:37:24;;;;;;;10.20;6.43;;;;;;;-141.50;100.00;63355.56;4910943;29;20094;-79
2021/10/31 03:39:51;;;;;;;11.13;6.18;;;;;;;-141.50;100.00;63355.56;4898794;29;20062;-80
2021/10/31 03:42:18;;;;;;;8.45;5.53;;;;;;;-141.50;100.00;63355.56;4913802;29;20064;-79
2021/10/31 03:44:48;;;;;;;11.77;6.43;;;;;;;-141.50;100.00;63355.56;4897502;29;20052;-80
2021/10/31 03:47:17;;;;;;;9.10;5.53;;;;;;;-141.50;100.00;63355.56;4912709;29;20083;-77
2021/10/31 03:49:44;;;;;;;10.57;5.85;;;;;;;-141.50;100.00;63355.56;4899500;29;20052;-80
2021/10/31 03:52:12;;;;;;;8.93;5.60;;;;;;;-141.50;100.00;63355.56;4921523;29;20574;-79
2021/10/31 03:54:39;;;;;;;8.90;5.63;;;;;;;-141.50;100.00;63355.56;4908475;29;20052;-79
2021/10/31 03:57:07;;;;;;;10.18;6.13;;;;;;;-141.50;100.00;63355.56;4907363;29;20085;-79
2021/10/31 03:59:34;;;;;;;9.60;6.07;;;;;;;-141.50;100.00;63355.56;4915022;29;20056;-80
2021/10/31 04:02:02;;;;;;;10.50;6.18;;;;;;;-141.50;100.00;63355.56;4896913;29;20056;-79
2021/10/31 04:04:29;;;;;;;9.55;6.38;;;;;;;-141.50;100.00;63355.56;4913476;29;20060;-80
2021/10/31 04:06:56;;;;;;;10.43;6.13;;;;;;;-141.50;100.00;63355.56;4895934;29;20485;-80
2021/10/31 04:09:22;;;;;;;8.45;5.80;;;;;;;-141.50;100.00;63355.56;4897701;29;20072;-80
2021/10/31 04:11:50;;;;;;;9.63;5.75;;;;;;;-141.50;100.00;63355.56;4897106;29;20084;-80
2021/10/31 04:14:17;;;;;;;10.30;6.05;;;;;;;-141.50;100.00;63355.56;4897592;29;20182;-80
2021/10/31 04:16:44;;;;;;;9.40;6.05;;;;;;;-141.50;100.00;63355.56;4896765;29;20107;-81
2021/10/31 04:19:11;;;;;;;9.68;6.28;;;;;;;-141.50;100.00;63355.56;4897387;29;20453;-79
2021/10/31 04:21:38;;;;;;;8.73;5.63;;;;;;;-141.50;100.00;63355.56;4896462;29;20079;-77
2021/10/31 04:24:04;;;;;;;8.60;5.82;;;;;;;-141.50;100.00;63355.56;4897503;29;20139;-79
2021/10/31 04:26:31;;;;;;;9.48;6.40;;;;;;;-141.50;100.00;63355.56;4898377;29;20048;-79
2021/10/31 04:28:58;;;;;;;10.48;6.30;;;;;;;-141.50;100.00;63355.56;4896929;29;20044;-80
2021/10/31 04:31:25;;;;;;;9.35;5.93;;;;;;;-141.50;100.00;63355.56;4897578;29;20056;-79
2021/10/31 04:33:51;;;;;;;10.13;5.70;;;;;;;-141.50;100.00;63355.56;4898400;29;20048;-79
2021/10/31 04:36:19;;;;;;;8.70;5.80;;;;;;;-141.50;100.00;63355.56;4898672;29;20052;-79
2021/10/31 04:38:51;;;;;;;8.98;5.63;;;;;;;-141.50;100.00;63355.56;4897343;29;20056;-80
2021/10/31 04:41:18;;;;;;;10.43;5.93;;;;;;;-141.50;100.00;63355.56;4913350;29;20040;-79
2021/10/31 04:43:45;;;;;;;8.40;5.78;;;;;;;-141.50;100.00;63355.56;4900606;29;20503;-80
2021/10/31 04:46:12;;;;;;;8.52;5.78;;;;;;;-141.50;100.00;63355.56;4901710;29;20166;-80
2021/10/31 04:48:38;;;;;;;9.70;5.70;;;;;;;-141.50;100.00;63355.56;4902148;29;20091;-80
2021/10/31 04:51:05;;;;;;;10.27;5.28;;;;;;;-141.50;100.00;63355.56;4900663;29;20056;-80
2021/10/31 04:53:32;;;;;;;8.15;5.05;;;;;;;-141.50;100.00;63355.56;4900213;29;20059;-80
2021/10/31 04:56:03;;;;;;;10.18;5.50;;;;;;;-141.50;100.00;63355.56;4902215;29;20044;-80
2021/10/31 04:58:29;;;;;;;11.07;5.78;;;;;;;-141.50;100.00;63355.56;4901200;29;20058;-80
2021/10/31 05:00:56;;;;;;;9.43;5.80;;;;;;;-141.50;100.00;63355.56;4901394;29;20084;-80
2021/10/31 05:03:24;;;;;;;11.88;6.18;;;;;;;-141.50;100.00;63355.56;4901636;29;20493;-81
2021/10/31 05:05:51;;;;;;;9.90;5.93;;;;;;;-141.50;100.00;63355.56;4916084;29;20055;-80
2021/10/31 05:08:17;;;;;;;10.85;5.35;;;;;;;-141.50;100.00;63355.56;4918054;23;20052;-80
2021/10/31 05:10:44;;;;;;;9.10;5.88;;;;;;;-141.50;100.00;63355.56;4894129;29;20524;-79
2021/10/31 05:13:11;;;;;;;13.15;6.63;;;;;;;-141.50;100.00;63355.56;4890143;29;20593;-79
2021/10/31 05:15:38;;;;;;;9.82;6.68;;;;;;;-141.50;100.00;63355.56;4892827;29;20113;-78
2021/10/31 05:18:05;;;;;;;13.02;6.65;;;;;;;-141.50;100.00;63355.56;4891300;29;20052;-80
2021/10/31 05:20:32;;;;;;;9.98;5.95;;;;;;;-141.50;100.00;63355.56;4889491;29;20083;-81
2021/10/31 05:22:58;;;;;;;9.65;6.47;;;;;;;-141.50;100.00;63355.56;4896108;29;20060;-80
2021/10/31 05:25:25;;;;;;;12.65;7.43;;;;;;;-141.50;100.00;63355.56;4922202;29;20052;-80
2021/10/31 05:27:52;;;;;;;14.13;8.50;;;;;;;-141.50;100.00;63355.56;4909795;29;20083;-79
2021/10/31 05:30:19;;;;;;;13.45;8.65;;;;;;;-141.50;100.00;63355.56;4897822;29;20092;-80
2021/10/31 05:32:47;;;;;;;17.20;8.88;;;;;;;-141.50;100.00;63355.56;4896253;29;20049;-81
2021/10/31 05:35:13;;;;;;;17.92;10.38;;;;;;;-141.50;100.00;63355.56;4895654;29;20049;-80
2021/10/31 05:37:42;;;;;;;20.08;9.23;;;;;;;-141.50;100.00;63355.56;4890293;29;20053;-81
2021/10/31 05:40:11;;;;;;;19.88;10.15;;;;;;;-141.50;100.00;63355.56;4894535;29;20056;-80
2021/10/31 05:42:38;;;;;;;17.35;10.02;;;;;;;-141.50;100.00;63355.56;4890267;29;20053;-80
2021/10/31 05:45:07;;;;;;;16.92;10.93;;;;;;;-141.50;100.00;63355.56;4895716;29;20048;-79
2021/10/31 05:47:36;;;;;;;19.08;10.45;;;;;;;-141.50;100.00;63355.56;4886443;29;20044;-84
2021/10/31 05:50:08;;;;;;;17.13;9.55;;;;;;;-141.50;100.00;63355.56;4898526;29;20556;-83
2021/10/31 05:52:34;;;;;;;15.40;8.10;;;;;;;-141.50;100.00;63355.56;4893455;29;20055;-83
2021/10/31 05:55:02;;;;;;;16.25;9.13;;;;;;;-141.50;100.00;63355.56;4891470;29;20101;-84
2021/10/31 05:57:28;;;;;;;15.63;9.00;;;;;;;-141.50;100.00;63355.56;4892577;29;20425;-85
2021/10/31 05:59:55;;;;;;;17.65;8.40;;;;;;;-141.50;100.00;63355.56;4894500;29;20084;-85
2021/10/31 06:02:22;;;;;;;14.43;8.55;;;;;;;-141.50;100.00;63355.56;4896621;29;20048;-84
2021/10/31 06:04:49;;;;;;;15.30;8.68;;;;;;;-141.50;100.00;63355.56;4904558;29;20497;-85
2021/10/31 06:07:17;;;;;;;17.35;9.13;;;;;;;-141.50;100.00;63355.56;4901298;29;20133;-84
2021/10/31 06:09:44;;;;;;;15.30;7.93;;;;;;;-141.50;100.00;63355.56;4919564;29;20485;-82
2021/10/31 06:12:10;;;;;;;16.25;8.43;;;;;;;-141.50;100.00;63355.56;4919703;29;20083;-85
2021/10/31 06:14:38;;;;;;;13.68;8.40;;;;;;;-141.50;100.00;63355.56;4916536;29;20337;-85
2021/10/31 06:17:05;;;;;;;12.23;7.63;;;;;;;-141.50;100.00;63355.56;4916811;29;20056;-83
2021/10/31 06:19:33;;;;;;;13.40;7.95;;;;;;;-141.50;100.00;63355.56;4919192;29;20517;-83
2021/10/31 06:22:00;;;;;;;13.50;7.97;;;;;;;-141.50;100.00;63355.56;4913351;29;20562;-84
2021/10/31 06:24:26;;;;;;;14.48;8.48;;;;;;;-141.50;100.00;63355.56;4898435;29;20056;-83
2021/10/31 06:26:53;;;;;;;17.50;8.57;;;;;;;-141.50;100.00;63355.56;4899557;29;20083;-83
2021/10/31 06:29:19;;;;;;;13.80;8.25;;;;;;;-141.50;100.00;63355.56;4900382;29;20056;-82
2021/10/31 06:31:46;;;;;;;19.00;8.90;;;;;;;-141.50;100.00;63355.56;4888726;29;20075;-82
2021/10/31 06:34:12;;;;;;;19.50;10.05;;;;;;;-141.50;100.00;63355.56;4898421;29;20088;-83
2021/10/31 06:36:39;;;;;;;19.25;10.50;;;;;;;-141.50;100.00;63355.56;4901340;29;20048;-82
2021/10/31 06:39:06;;;;;;;17.65;10.98;;;;;;;-141.50;100.00;63355.56;4899520;29;20108;-83
2021/10/31 06:41:33;;;;;;;18.80;10.57;;;;;;;-141.50;100.00;63355.56;4900679;29;20128;-85
2021/10/31 06:43:59;;;;;;;21.08;11.57;;;;;;;-141.50;100.00;63355.56;4900883;29;20056;-84
2021/10/31 06:46:26;;;;;;;23.65;13.75;;;;;;;-141.50;100.00;63355.56;4901333;29;20063;-82
2021/10/31 06:48:53;;;;;;;24.10;13.98;;;;;;;-141.50;100.00;63355.56;4900193;29;20143;-82
2021/10/31 06:51:20;;;;;;;29.50;14.43;;;;;;;-141.50;100.00;63355.56;4899043;29;20096;-83
2021/10/31 06:53:49;;;;;;;28.27;15.70;;;;;;;-141.50;100.00;63355.56;4896825;29;20394;-84
2021/10/31 06:56:16;;;;;;;24.23;14.77;;;;;;;-141.50;100.00;63355.56;4896781;29;20079;-84
2021/10/31 06:58:43;;;;;;;28.70;15.30;;;;;;;-141.50;100.00;63355.56;4896441;29;20120;-82
2021/10/31 07:01:10;;;;;;;26.05;14.88;;;;;;;-141.50;100.00;63355.56;4887752;29;20060;-83
2021/10/31 07:03:37;;;;;;;26.35;15.60;;;;;;;-141.50;100.00;63355.56;4886354;29;20072;-83
2021/10/31 07:06:04;;;;;;;23.73;14.45;;;;;;;-141.50;100.00;63355.56;4890928;29;20498;-84
2021/10/31 07:08:31;;;;;;;26.88;15.18;;;;;;;-141.50;100.00;63355.56;4889614;29;20206;-86
2021/10/31 07:10:57;;;;;;;26.45;15.55;;;;;;;-141.50;100.00;63355.56;4885323;29;20488;-84
2021/10/31 07:13:24;;;;;;;26.95;15.88;;;;;;;-141.50;100.00;63355.56;4888381;29;20501;-84
2021/10/31 07:15:51;;;;;;;25.77;15.30;;;;;;;-141.50;100.00;63355.56;4889348;29;20687;-85
2021/10/31 07:18:17;;;;;;;24.27;14.10;;;;;;;-141.50;100.00;63355.56;4895095;29;20060;-84
2021/10/31 07:20:44;;;;;;;24.67;15.07;;;;;;;-141.50;100.00;63355.56;4891653;29;20136;-83
2021/10/31 07:23:10;;;;;;;26.20;15.02;;;;;;;-141.50;100.00;63355.56;4891414;29;20081;-82
2021/10/31 07:25:37;;;;;;;24.40;14.48;;;;;;;-141.50;100.00;63355.56;4896676;29;20076;-81
2021/10/31 07:28:04;;;;;;;24.20;14.50;;;;;;;-141.50;100.00;63355.56;4894751;29;20056;-83
2021/10/31 07:30:30;;;;;;;26.15;15.15;;;;;;;-141.50;100.00;63355.56;4886249;29;20079;-82
2021/10/31 07:32:59;;;;;;;31.55;19.48;;;;;;;-141.50;100.00;63355.56;4890604;29;20729;-84
2021/10/31 07:35:27;;;;;;;23.30;14.95;;;;;;;-141.50;100.00;63355.56;4915206;29;20082;-84
2021/10/31 07:37:54;;;;;;;27.38;16.52;;;;;;;-141.50;100.00;63355.56;4900054;29;20056;-83
2021/10/31 07:40:22;;;;;;;27.10;16.10;;;;;;;-141.50;100.00;63355.56;4898445;29;20056;-82
2021/10/31 07:42:53;;;;;;;23.75;14.45;;;;;;;-141.50;100.00;63355.56;4895854;29;20508;-82
2021/10/31 07:45:37;;;;;;;23.48;13.00;;;;;;;-141.50;100.00;63355.56;4915068;29;20084;-85
2021/10/31 07:48:04;;;;;;;21.63;12.98;;;;;;;-141.50;100.00;63355.56;4901094;29;20067;-85
2021/10/31 07:50:37;;;;;;;22.73;12.48;;;;;;;-141.50;100.00;63355.56;4896531;29;20489;-83
2021/10/31 07:53:06;;;;;;;20.52;12.98;;;;;;;-141.50;100.00;63355.56;4895373;29;20063;-83
2021/10/31 07:55:34;;;;;;;20.50;12.00;;;;;;;-141.50;100.00;63355.56;4887637;29;20052;-84
2021/10/31 07:58:03;;;;;;;19.35;12.70;;;;;;;-141.50;100.00;63355.56;4895768;29;20080;-83
2021/10/31 08:00:31;;;;;;;21.02;12.75;;;;;;;-141.50;100.00;63355.56;4916658;29;20052;-81
2021/10/31 08:02:58;;;;;;;20.00;12.48;;;;;;;-141.50;100.00;63355.56;4914796;29;20515;-82
2021/10/31 08:05:26;;;;;;;29.45;17.08;;;;;;;-141.50;100.00;63355.56;4917142;29;20052;-82
2021/10/31 08:07:54;;;;;;;20.02;11.95;;;;;;;-141.50;100.00;63355.56;4912846;29;20059;-84
2021/10/31 08:10:20;;;;;;;20.23;12.77;;;;;;;-141.50;100.00;63355.56;4900331;29;20079;-82
2021/10/31 08:12:47;;;;;;;70.53;34.85;;;;;;;-141.50;100.00;63355.56;4906998;29;20061;-82
2021/10/31 08:15:14;;;;;;;61.38;29.42;;;;;;;-141.50;100.00;63355.56;4896636;29;20091;-84
2021/10/31 08:17:41;;;;;;;37.65;21.90;;;;;;;-141.50;100.00;63355.56;4895181;29;20060;-81
2021/10/31 08:20:09;;;;;;;21.85;13.38;;;;;;;-141.50;100.00;63355.56;4888018;29;20105;-82
2021/10/31 08:22:35;;;;;;;24.00;15.27;;;;;;;-141.50;100.00;63355.56;4894286;29;20258;-84
2021/10/31 08:25:03;;;;;;;20.90;12.43;;;;;;;-141.50;100.00;63355.56;4898458;29;20049;-82
2021/10/31 08:27:32;;;;;;;17.85;11.75;;;;;;;-141.50;100.00;63355.56;4876162;29;20087;-81
2021/10/31 08:29:58;;;;;;;19.92;12.23;;;;;;;-141.50;100.00;63355.56;4888317;29;20056;-82
2021/10/31 08:32:27;;;;;;;17.10;10.75;;;;;;;-141.50;100.00;63355.56;4896221;29;20061;-82
2021/10/31 08:34:53;;;;;;;17.08;10.77;;;;;;;-141.50;100.00;63355.56;4900117;29;20057;-83
2021/10/31 08:37:20;;;;;;;18.38;11.73;;;;;;;-141.50;100.00;63355.56;4898369;29;20099;-84
2021/10/31 08:39:47;;;;;;;18.80;11.35;;;;;;;-141.50;100.00;63355.56;4897633;29;20129;-83
2021/10/31 08:42:17;;;;;;;16.75;10.93;;;;;;;-141.50;100.00;63355.56;4899608;29;20098;-82
2021/10/31 08:44:44;;;;;;;16.48;10.30;;;;;;;-141.50;100.00;63355.56;4885344;29;20482;-82
2021/10/31 08:47:11;;;;;;;15.48;9.38;;;;;;;-141.50;100.00;63355.56;4884798;29;20080;-81
2021/10/31 08:49:37;;;;;;;16.13;10.30;;;;;;;-141.50;100.00;63355.56;4899917;29;20081;-81
2021/10/31 08:52:07;;;;;;;15.57;9.85;;;;;;;-141.50;100.00;63355.56;4899539;29;20063;-82
2021/10/31 08:54:36;;;;;;;16.35;10.88;;;;;;;-141.50;100.00;63355.56;4900652;29;20053;-83
2021/10/31 08:57:05;;;;;;;17.73;11.85;;;;;;;-141.50;100.00;63355.56;4886780;29;20053;-84
2021/10/31 08:59:32;;;;;;;22.20;12.50;;;;;;;-141.50;100.00;63355.56;4893890;29;20061;-84
2021/10/31 09:01:58;;;;;;;19.70;12.50;;;;;;;-141.50;100.00;63355.56;4898640;29;20116;-84
2021/10/31 09:04:26;;;;;;;19.98;13.23;;;;;;;-141.50;100.00;63355.56;4899147;29;20056;-83
2021/10/31 09:06:54;;;;;;;23.73;13.60;;;;;;;-141.50;100.00;63355.56;4901841;29;20128;-83
2021/10/31 09:09:24;;;;;;;19.33;12.73;;;;;;;-141.50;100.00;63355.56;4911683;29;20080;-84
2021/10/31 09:11:50;;;;;;;20.05;12.60;;;;;;;-141.50;100.00;63355.56;4919004;29;20052;-82
2021/10/31 09:14:17;;;;;;;21.13;11.98;;;;;;;-141.50;100.00;63355.56;4900018;29;20108;-81
2021/10/31 09:16:43;;;;;;;18.50;11.52;;;;;;;-141.50;100.00;63355.56;4881360;29;20045;-81
2021/10/31 09:19:10;;;;;;;17.00;11.38;;;;;;;-141.50;100.00;63355.56;4878318;29;20053;-79
2021/10/31 09:21:38;;;;;;;16.98;11.00;;;;;;;-141.50;100.00;63355.56;4885410;29;20587;-79
2021/10/31 09:24:04;;;;;;;18.23;11.18;;;;;;;-141.50;100.00;63355.56;4885990;29;20053;-79
2021/10/31 09:26:31;;;;;;;16.33;10.98;;;;;;;-141.50;100.00;63355.56;4884342;29;20049;-78
2021/10/31 09:28:59;;;;;;;18.60;11.38;;;;;;;-141.50;100.00;63355.56;4886367;29;20785;-81
2021/10/31 09:31:25;;;;;;;15.23;10.90;;;;;;;-141.50;100.00;63355.56;4885103;29;20083;-79
2021/10/31 09:33:54;;;;;;;17.63;11.23;;;;;;;-141.50;100.00;63355.56;4884538;29;20152;-80
2021/10/31 09:36:20;;;;;;;17.92;11.18;;;;;;;-141.50;100.00;63355.56;4884323;29;20045;-80
2021/10/31 09:38:48;;;;;;;18.25;11.27;;;;;;;-141.50;100.00;63355.56;4884597;29;20080;-79
2021/10/31 09:41:15;;;;;;;19.63;12.95;;;;;;;-141.50;100.00;63355.56;4886487;29;20421;-81
2021/10/31 09:43:48;;;;;;;18.45;11.02;;;;;;;-141.50;100.00;63355.56;4889642;29;20156;-80
2021/10/31 09:46:15;;;;;;;15.38;10.57;;;;;;;-141.50;100.00;63355.56;4888339;29;20056;-82
2021/10/31 09:48:41;;;;;;;14.75;10.55;;;;;;;-141.50;100.00;63355.56;4886848;29;20049;-81
2021/10/31 09:51:08;;;;;;;19.05;11.48;;;;;;;-141.50;100.00;63355.56;4888400;29;20822;-82
2021/10/31 09:53:35;;;;;;;16.08;10.80;;;;;;;-141.50;100.00;63355.56;4887906;29;20044;-82
2021/10/31 09:56:03;;;;;;;15.65;10.85;;;;;;;-141.50;100.00;63355.56;4892864;29;20045;-79
2021/10/31 09:58:34;;;;;;;16.70;10.98;;;;;;;-141.50;100.00;63355.56;4899556;29;20072;-82
2021/10/31 10:01:22;;;;;;;18.58;11.38;;;;;;;-141.50;100.00;63355.56;4883569;29;20130;-80
2021/10/31 10:03:56;;;;;;;18.52;11.77;;;;;;;-141.50;100.00;63355.56;4884638;29;20124;-80
2021/10/31 10:06:25;;;;;;;20.48;12.38;;;;;;;-141.50;100.00;63355.56;4890911;29;20057;-79
2021/10/31 10:09:01;;;;;;;16.88;11.32;;;;;;;-141.50;100.00;63355.56;4884812;29;20052;-80
2021/10/31 10:11:31;;;;;;;17.27;11.40;;;;;;;-141.50;100.00;63355.56;4883547;29;20052;-79
2021/10/31 10:14:10;;;;;;;15.40;10.52;;;;;;;-141.50;100.00;63355.56;4886694;29;20061;-80
2021/10/31 10:16:37;;;;;;;18.33;11.88;;;;;;;-141.50;100.00;63355.56;4885506;29;20045;-81
2021/10/31 10:19:18;;;;;;;14.57;10.65;;;;;;;-141.50;100.00;63355.56;4884428;29;20191;-81
2021/10/31 10:21:52;;;;;;;14.50;10.13;;;;;;;-141.50;100.00;63355.56;4896080;29;20180;-79
2021/10/31 10:24:19;;;;;;;14.48;10.18;;;;;;;-141.50;100.00;63355.56;4896059;29;20056;-80
2021/10/31 10:26:46;;;;;;;15.68;10.98;;;;;;;-141.50;100.00;63355.56;4892456;29;20101;-81
2021/10/31 10:29:21;;;;;;;16.20;10.50;;;;;;;-141.50;100.00;63355.56;4886133;29;20080;-82
2021/10/31 10:31:50;;;;;;;14.88;10.50;;;;;;;-141.50;100.00;63355.56;4896190;29;20450;-84
2021/10/31 10:34:17;;;;;;;12.77;8.93;;;;;;;-141.50;100.00;63355.56;4894214;29;20052;-80
2021/10/31 10:36:49;;;;;;;10.23;7.97;;;;;;;-141.50;100.00;63355.56;4891583;29;20088;-80
2021/10/31 10:39:18;;;;;;;12.13;8.73;;;;;;;-141.50;100.00;63355.56;4894248;29;20052;-79
2021/10/31 10:41:50;;;;;;;11.50;8.05;;;;;;;-141.50;100.00;63355.56;4900701;29;20060;-77
2021/10/31 10:44:19;;;;;;;10.95;8.05;;;;;;;-141.50;100.00;63355.56;4901396;29;20060;-81
2021/10/31 10:46:49;;;;;;;11.55;8.70;;;;;;;-141.50;100.00;63355.56;4903869;29;20147;-79
2021/10/31 10:49:20;;;;;;;11.77;8.45;;;;;;;-141.50;100.00;63355.56;4897521;29;20056;-78
2021/10/31 10:52:40;;;;;;;11.20;8.18;;;;;;;-141.50;100.00;63355.56;4894216;29;20335;-80
2021/10/31 10:55:10;;;;;;;12.75;8.30;;;;;;;-141.50;100.00;63355.56;4866541;29;20580;-78
2021/10/31 10:57:39;;;;;;;12.20;8.52;;;;;;;-141.50;100.00;63355.56;4878814;29;20114;-78
2021/10/31 11:00:22;;;;;;;13.05;7.82;;;;;;;-141.50;100.00;63355.56;4906065;29;20080;-80
2021/10/31 11:03:00;;;;;;;9.57;7.60;;;;;;;-141.50;100.00;63355.56;4918309;29;20522;-82
2021/10/31 11:05:31;;;;;;;9.63;7.55;;;;;;;-141.50;100.00;63355.56;4919235;29;20052;-82
2021/10/31 11:07:59;;;;;;;12.23;8.93;;;;;;;-141.50;100.00;63355.56;4900509;29;20389;-84
2021/10/31 11:10:29;;;;;;;9.13;7.25;;;;;;;-141.50;100.00;63355.56;4895859;29;20509;-79
2021/10/31 11:12:58;;;;;;;11.75;7.15;;;;;;;-141.50;100.00;63355.56;4901561;29;20052;-79